createdAt,value
2018-06-13T00:00:01.380Z,1.93
2018-06-13T00:02:29.708Z,2.20
2018-06-13T00:04:57.790Z,2.13
2018-06-13T00:07:26.119Z,2.13
2018-06-13T00:09:54.494Z,2.00
2018-06-13T00:12:22.815Z,2.33
2018-06-13T00:14:50.903Z,2.50
2018-06-13T00:17:19.227Z,2.17
2018-06-13T00:19:47.584Z,1.90
2018-06-13T00:22:15.916Z,2.13
2018-06-13T00:24:43.999Z,2.20
2018-06-13T00:27:12.053Z,2.00
2018-06-13T00:29:40.418Z,2.17
2018-06-13T00:32:08.752Z,1.97
2018-06-13T00:34:37.165Z,2.10
2018-06-13T00:37:05.532Z,2.10
2018-06-13T00:39:33.900Z,1.90
2018-06-13T00:42:02.680Z,2.23
2018-06-13T00:44:31.048Z,2.03
2018-06-13T00:46:59.385Z,2.00
2018-06-13T00:49:27.815Z,2.30
2018-06-13T00:51:56.183Z,2.40
2018-06-13T00:54:24.515Z,2.20
2018-06-13T00:56:52.872Z,2.20
2018-06-13T00:59:21.210Z,2.17
2018-06-13T01:01:49.275Z,2.27
2018-06-13T01:04:17.323Z,2.10
2018-06-13T01:06:46.316Z,2.27
2018-06-13T01:09:14.436Z,2.60
2018-06-13T01:11:43.337Z,2.60
2018-06-13T01:14:11.693Z,2.17
2018-06-13T01:16:40.577Z,2.30
2018-06-13T01:19:09.170Z,2.63
2018-06-13T01:21:38.071Z,2.37
2018-06-13T01:24:06.427Z,2.53
2018-06-13T01:26:35.325Z,2.23
2018-06-13T01:29:03.378Z,2.40
2018-06-13T01:31:32.332Z,1.90
2018-06-13T01:34:00.719Z,2.23
2018-06-13T01:36:29.595Z,2.23
2018-06-13T01:38:58.524Z,2.00
2018-06-13T01:41:27.419Z,2.57
2018-06-13T01:43:55.525Z,2.37
2018-06-13T01:46:24.059Z,2.30
2018-06-13T01:48:52.396Z,1.90
2018-06-13T01:51:20.740Z,2.20
2018-06-13T01:53:49.065Z,2.50
2018-06-13T01:56:17.412Z,2.27
2018-06-13T01:58:45.723Z,2.23
2018-06-13T02:01:14.072Z,1.93
2018-06-13T02:03:42.187Z,1.97
2018-06-13T02:06:10.527Z,2.17
2018-06-13T02:08:38.607Z,2.00
2018-06-13T02:11:06.683Z,1.80
2018-06-13T02:13:35.008Z,2.00
2018-06-13T02:16:03.412Z,2.07
2018-06-13T02:18:31.729Z,1.83
2018-06-13T02:21:00.081Z,1.90
2018-06-13T02:23:28.167Z,2.30
2018-06-13T02:25:56.246Z,2.40
2018-06-13T02:28:24.568Z,2.73
2018-06-13T02:30:52.925Z,3.17
2018-06-13T02:33:21.243Z,2.70
2018-06-13T02:35:49.609Z,2.20
2018-06-13T02:38:17.930Z,2.30
2018-06-13T02:40:46.023Z,2.57
2018-06-13T02:43:14.340Z,2.50
2018-06-13T02:45:42.672Z,2.63
2018-06-13T02:48:11.065Z,2.30
2018-06-13T02:50:39.399Z,2.60
2018-06-13T02:53:07.759Z,2.90
2018-06-13T02:55:36.091Z,2.50
2018-06-13T02:58:04.456Z,2.50
2018-06-13T03:00:32.793Z,2.70
2018-06-13T03:03:01.142Z,2.97
2018-06-13T03:05:29.459Z,2.67
2018-06-13T03:07:57.850Z,2.57
2018-06-13T03:10:26.164Z,3.00
2018-06-13T03:12:54.568Z,2.83
2018-06-13T03:15:22.892Z,2.93
2018-06-13T03:17:51.288Z,2.90
2018-06-13T03:20:19.435Z,2.67
2018-06-13T03:22:47.797Z,2.60
2018-06-13T03:25:16.108Z,2.50
2018-06-13T03:27:44.472Z,2.60
2018-06-13T03:30:12.812Z,2.67
2018-06-13T03:32:41.167Z,2.60
2018-06-13T03:35:09.483Z,2.60
2018-06-13T03:37:37.860Z,2.47
2018-06-13T03:40:06.190Z,2.00
2018-06-13T03:42:34.270Z,2.17
2018-06-13T03:45:02.326Z,2.70
2018-06-13T03:47:30.684Z,2.43
2018-06-13T03:49:59.018Z,2.63
2018-06-13T03:52:27.371Z,2.13
2018-06-13T03:54:55.418Z,2.40
2018-06-13T03:57:23.777Z,2.33
2018-06-13T03:59:52.087Z,2.27
2018-06-13T04:02:20.440Z,2.30
2018-06-13T04:04:48.764Z,2.50
2018-06-13T04:07:16.871Z,2.70
2018-06-13T04:09:45.240Z,2.53
2018-06-13T04:12:13.591Z,2.97
2018-06-13T04:14:41.646Z,3.03
2018-06-13T04:17:09.763Z,3.23
2018-06-13T04:19:38.083Z,3.30
2018-06-13T04:22:06.432Z,3.20
2018-06-13T04:24:34.783Z,2.87
2018-06-13T04:27:03.112Z,3.07
2018-06-13T04:29:31.469Z,2.77
2018-06-13T04:31:59.800Z,3.50
2018-06-13T04:34:28.147Z,2.80
2018-06-13T04:36:56.469Z,3.03
2018-06-13T04:39:24.811Z,3.20
2018-06-13T04:41:53.121Z,3.00
2018-06-13T04:44:21.512Z,3.13
2018-06-13T04:46:49.832Z,3.80
2018-06-13T04:49:18.184Z,3.13
2018-06-13T04:51:46.517Z,3.10
2018-06-13T04:54:14.880Z,3.10
2018-06-13T04:56:43.195Z,3.20
2018-06-13T04:59:11.286Z,3.40
2018-06-13T05:01:41.062Z,2.90
2018-06-13T05:04:09.857Z,3.40
2018-06-13T05:06:39.205Z,3.20
2018-06-13T05:09:08.387Z,3.47
2018-06-13T05:11:36.716Z,2.90
2018-06-13T05:14:05.100Z,2.80
2018-06-13T05:16:33.449Z,2.90
2018-06-13T05:19:01.812Z,2.83
2018-06-13T05:21:30.147Z,3.10
2018-06-13T05:23:58.492Z,2.97
2018-06-13T05:26:26.811Z,3.20
2018-06-13T05:28:55.160Z,2.80
2018-06-13T05:31:23.487Z,2.77
2018-06-13T05:33:51.871Z,3.03
2018-06-13T05:36:20.231Z,2.97
2018-06-13T05:38:48.609Z,2.60
2018-06-13T05:41:16.687Z,2.97
2018-06-13T05:43:45.110Z,3.00
2018-06-13T05:46:13.449Z,2.50
2018-06-13T05:48:41.544Z,2.60
2018-06-13T05:51:09.863Z,3.00
2018-06-13T05:53:38.221Z,2.70
2018-06-13T05:56:06.567Z,2.70
2018-06-13T05:58:34.955Z,2.67
2018-06-13T06:01:03.281Z,2.67
2018-06-13T06:03:31.660Z,2.13
2018-06-13T06:05:59.988Z,2.60
2018-06-13T06:08:28.638Z,2.80
2018-06-13T06:10:56.996Z,2.70
2018-06-13T06:13:25.816Z,2.40
2018-06-13T06:15:54.163Z,2.30
2018-06-13T06:18:22.568Z,2.23
2018-06-13T06:20:50.931Z,2.53
2018-06-13T06:23:19.296Z,2.60
2018-06-13T06:25:47.666Z,2.60
2018-06-13T06:28:15.987Z,2.23
2018-06-13T06:30:44.352Z,2.57
2018-06-13T06:33:12.956Z,2.33
2018-06-13T06:35:41.318Z,2.63
2018-06-13T06:38:09.656Z,2.47
2018-06-13T06:40:38.035Z,2.60
2018-06-13T06:43:06.360Z,2.63
2018-06-13T06:45:34.731Z,2.20
2018-06-13T06:48:03.056Z,2.60
2018-06-13T06:50:31.447Z,2.70
2018-06-13T06:52:59.772Z,2.60
2018-06-13T06:55:28.168Z,2.30
2018-06-13T06:57:56.517Z,2.63
2018-06-13T07:00:24.876Z,2.63
2018-06-13T07:02:53.207Z,2.73
2018-06-13T07:05:21.566Z,2.60
2018-06-13T07:07:49.954Z,2.47
2018-06-13T07:10:18.361Z,2.90
2018-06-13T07:12:46.417Z,2.30
2018-06-13T07:15:14.779Z,2.63
2018-06-13T07:17:43.103Z,2.67
2018-06-13T07:20:11.467Z,2.93
2018-06-13T07:22:39.533Z,2.77
2018-06-13T07:25:07.883Z,2.63
2018-06-13T07:27:36.274Z,3.60
2018-06-13T07:30:04.701Z,2.47
2018-06-13T07:32:33.017Z,2.70
2018-06-13T07:35:01.375Z,2.67
2018-06-13T07:37:29.740Z,2.63
2018-06-13T07:39:58.101Z,2.90
2018-06-13T07:42:26.425Z,2.73
2018-06-13T07:44:54.785Z,2.77
2018-06-13T07:47:23.123Z,2.80
2018-06-13T07:49:51.478Z,2.77
2018-06-13T07:52:19.813Z,2.73
2018-06-13T07:54:48.196Z,2.77
2018-06-13T07:57:16.530Z,3.00
2018-06-13T07:59:44.906Z,2.83
2018-06-13T08:02:13.237Z,3.17
2018-06-13T08:04:41.587Z,2.90
2018-06-13T08:07:09.670Z,2.23
2018-06-13T08:09:38.038Z,2.33
2018-06-13T08:12:06.124Z,2.20
2018-06-13T08:14:34.465Z,2.37
2018-06-13T08:17:02.899Z,2.30
2018-06-13T08:19:31.236Z,1.77
2018-06-13T08:21:59.657Z,1.70
2018-06-13T08:24:28.068Z,1.70
2018-06-13T08:26:56.464Z,1.90
2018-06-13T08:29:24.775Z,1.50
2018-06-13T08:31:53.124Z,1.77
2018-06-13T08:34:21.443Z,1.70
2018-06-13T08:36:49.804Z,1.97
2018-06-13T08:39:18.138Z,1.53
2018-06-13T08:41:46.496Z,1.50
2018-06-13T08:44:14.818Z,1.50
2018-06-13T08:46:43.209Z,1.27
2018-06-13T08:49:11.525Z,1.60
2018-06-13T08:51:39.876Z,1.80
2018-06-13T08:54:08.257Z,1.40
2018-06-13T08:56:36.575Z,1.43
2018-06-13T08:59:04.975Z,1.50
2018-06-13T09:01:33.357Z,1.50
2018-06-13T09:04:01.706Z,1.70
2018-06-13T09:06:30.060Z,1.20
2018-06-13T09:08:58.177Z,1.43
2018-06-13T09:11:26.518Z,1.30
2018-06-13T09:13:54.834Z,1.17
2018-06-13T09:16:23.200Z,1.30
2018-06-13T09:18:51.528Z,1.23
2018-06-13T09:21:19.935Z,1.50
2018-06-13T09:23:48.257Z,1.60
2018-06-13T09:26:16.624Z,1.70
2018-06-13T09:28:44.938Z,1.70
2018-06-13T09:31:13.345Z,1.80
2018-06-13T09:33:41.680Z,1.93
2018-06-13T09:36:10.069Z,1.90
2018-06-13T09:38:38.391Z,2.23
2018-06-13T09:41:06.759Z,1.87
2018-06-13T09:43:34.818Z,2.00
2018-06-13T09:46:03.562Z,2.07
2018-06-13T09:48:31.260Z,1.90
2018-06-13T09:50:59.617Z,1.90
2018-06-13T09:53:27.944Z,2.30
2018-06-13T09:55:56.342Z,2.03
2018-06-13T09:58:24.709Z,2.20
2018-06-13T10:00:58.463Z,1.97
2018-06-13T10:03:26.829Z,2.17
2018-06-13T10:05:55.144Z,2.27
2018-06-13T10:08:23.523Z,2.10
2018-06-13T10:10:51.856Z,1.97
2018-06-13T10:13:20.213Z,1.90
2018-06-13T10:15:48.563Z,2.00
2018-06-13T10:18:16.914Z,1.93
2018-06-13T10:20:45.256Z,2.00
2018-06-13T10:23:13.618Z,2.00
2018-06-13T10:25:42.559Z,2.10
2018-06-13T10:28:10.936Z,1.83
2018-06-13T10:30:39.260Z,1.60
2018-06-13T10:33:07.343Z,1.80
2018-06-13T10:35:35.681Z,2.10
2018-06-13T10:38:04.148Z,2.00
2018-06-13T10:40:32.552Z,2.37
2018-06-13T10:43:00.922Z,2.00
2018-06-13T10:45:29.317Z,1.90
2018-06-13T10:47:57.729Z,2.10
2018-06-13T10:50:26.058Z,2.17
2018-06-13T10:52:54.438Z,2.10
2018-06-13T10:55:22.772Z,1.83
2018-06-13T10:57:51.144Z,2.50
2018-06-13T11:00:19.470Z,2.20
2018-06-13T11:02:47.881Z,2.13
2018-06-13T11:05:15.935Z,2.37
2018-06-13T11:07:44.309Z,2.30
2018-06-13T11:10:12.676Z,1.97
2018-06-13T11:12:41.037Z,1.93
2018-06-13T11:15:09.364Z,1.70
2018-06-13T11:17:37.738Z,2.07
2018-06-13T11:20:06.076Z,1.90
2018-06-13T11:22:35.160Z,1.93
2018-06-13T11:25:03.515Z,1.97
2018-06-13T11:27:31.598Z,1.80
2018-06-13T11:29:59.944Z,1.90
2018-06-13T11:32:28.304Z,1.83
2018-06-13T11:34:57.664Z,2.03
2018-06-13T11:37:26.968Z,1.87
2018-06-13T11:39:55.608Z,1.60
2018-06-13T11:42:23.976Z,1.50
2018-06-13T11:44:52.299Z,1.80
2018-06-13T11:47:20.655Z,1.73
2018-06-13T11:49:49.031Z,1.90
2018-06-13T11:52:17.441Z,1.90
2018-06-13T11:54:45.809Z,2.30
2018-06-13T11:57:14.139Z,2.40
2018-06-13T11:59:42.492Z,2.50
2018-06-13T12:02:10.821Z,2.20
2018-06-13T12:04:39.179Z,2.27
2018-06-13T12:07:07.616Z,2.77
2018-06-13T12:09:36.073Z,2.93
2018-06-13T12:12:04.468Z,2.77
2018-06-13T12:14:32.676Z,2.43
2018-06-13T12:17:01.042Z,2.80
2018-06-13T12:19:29.407Z,2.97
2018-06-13T12:21:57.743Z,3.57
2018-06-13T12:24:26.215Z,2.63
2018-06-13T12:26:54.537Z,2.77
2018-06-13T12:29:22.627Z,2.80
2018-06-13T12:31:50.964Z,2.43
2018-06-13T12:34:19.422Z,2.60
2018-06-13T12:36:47.455Z,2.33
2018-06-13T12:39:15.837Z,1.97
2018-06-13T12:41:43.906Z,1.90
2018-06-13T12:44:12.270Z,2.20
2018-06-13T12:46:40.399Z,2.40
2018-06-13T12:49:08.779Z,2.40
2018-06-13T12:51:37.105Z,2.60
2018-06-13T12:54:05.215Z,2.47
2018-06-13T12:56:35.751Z,2.40
2018-06-13T12:59:04.327Z,2.50
2018-06-13T13:01:32.633Z,2.50
2018-06-13T13:04:01.053Z,2.43
2018-06-13T13:06:31.107Z,2.80
2018-06-13T13:09:01.048Z,1.90
2018-06-13T13:11:29.451Z,2.30
2018-06-13T13:13:58.473Z,2.47
2018-06-13T13:16:26.815Z,2.47
2018-06-13T13:18:55.691Z,2.60
2018-06-13T13:21:24.026Z,2.30
2018-06-13T13:23:52.384Z,2.30
2018-06-13T13:26:20.709Z,2.50
2018-06-13T13:28:49.068Z,2.80
2018-06-13T13:31:17.429Z,2.30
2018-06-13T13:33:45.562Z,2.40
2018-06-13T13:36:13.902Z,2.30
2018-06-13T13:38:42.260Z,2.47
2018-06-13T13:41:10.325Z,2.33
2018-06-13T13:43:38.411Z,2.60
2018-06-13T13:46:07.164Z,2.50
2018-06-13T13:48:35.976Z,2.37
2018-06-13T13:51:04.043Z,2.27
2018-06-13T13:53:32.104Z,2.40
2018-06-13T13:56:00.460Z,2.03
2018-06-13T13:58:28.793Z,2.10
2018-06-13T14:00:57.408Z,2.20
2018-06-13T14:03:25.743Z,2.50
2018-06-13T14:05:54.109Z,2.47
2018-06-13T14:08:22.498Z,2.10
2018-06-13T14:10:50.594Z,2.07
2018-06-13T14:13:18.922Z,2.13
2018-06-13T14:15:47.349Z,2.00
2018-06-13T14:18:15.696Z,2.23
2018-06-13T14:20:44.049Z,2.50
2018-06-13T14:23:12.399Z,2.27
2018-06-13T14:25:40.762Z,2.30
2018-06-13T14:28:09.109Z,2.17
2018-06-13T14:30:37.468Z,2.40
2018-06-13T14:33:05.801Z,2.10
2018-06-13T14:35:34.179Z,2.20
2018-06-13T14:38:02.520Z,2.20
2018-06-13T14:40:30.888Z,2.20
2018-06-13T14:42:59.297Z,2.20
2018-06-13T14:45:27.648Z,2.03
2018-06-13T14:47:55.997Z,1.97
2018-06-13T14:50:24.364Z,2.20
2018-06-13T14:52:52.738Z,2.27
2018-06-13T14:55:21.104Z,1.90
2018-06-13T14:57:49.432Z,1.90
2018-06-13T15:00:17.783Z,2.20
2018-06-13T15:02:46.780Z,2.00
2018-06-13T15:05:15.270Z,2.03
2018-06-13T15:07:43.651Z,1.87
2018-06-13T15:10:11.772Z,2.17
2018-06-13T15:12:40.096Z,2.13
2018-06-13T15:15:08.453Z,2.20
2018-06-13T15:17:36.518Z,2.03
2018-06-13T15:20:04.645Z,2.20
2018-06-13T15:22:32.988Z,2.07
2018-06-13T15:25:01.360Z,2.13
2018-06-13T15:27:29.784Z,2.40
2018-06-13T15:29:58.173Z,2.40
2018-06-13T15:32:26.503Z,2.13
2018-06-13T15:34:54.875Z,2.23
2018-06-13T15:37:23.188Z,2.10
2018-06-13T15:39:51.573Z,2.13
2018-06-13T15:42:19.893Z,2.40
2018-06-13T15:44:48.258Z,2.00
2018-06-13T15:47:16.796Z,2.30
2018-06-13T15:49:45.126Z,2.43
2018-06-13T15:52:13.488Z,2.03
2018-06-13T15:54:41.838Z,2.20
2018-06-13T15:57:10.214Z,2.00
2018-06-13T15:59:38.548Z,1.97
2018-06-13T16:02:06.938Z,2.03
2018-06-13T16:04:35.016Z,2.37
2018-06-13T16:07:03.407Z,2.23
2018-06-13T16:09:31.500Z,2.10
2018-06-13T16:11:59.907Z,2.10
2018-06-13T16:14:28.304Z,1.93
2018-06-13T16:16:56.681Z,2.10
2018-06-13T16:19:25.018Z,2.07
2018-06-13T16:21:53.421Z,2.13
2018-06-13T16:24:21.760Z,2.20
2018-06-13T16:26:49.855Z,1.93
2018-06-13T16:29:18.193Z,1.93
2018-06-13T16:31:46.586Z,2.10
2018-06-13T16:34:15.017Z,1.97
2018-06-13T16:36:43.378Z,1.93
2018-06-13T16:39:11.759Z,2.10
2018-06-13T16:41:40.134Z,1.90
2018-06-13T16:44:08.445Z,2.40
2018-06-13T16:46:36.807Z,2.17
2018-06-13T16:49:05.947Z,2.00
2018-06-13T16:51:39.627Z,2.60
2018-06-13T16:54:14.679Z,2.60
2018-06-13T16:56:43.715Z,2.13
2018-06-13T16:59:12.051Z,2.33
2018-06-13T17:01:40.415Z,2.17
2018-06-13T17:04:08.842Z,2.20
2018-06-13T17:06:37.207Z,2.50
2018-06-13T17:09:06.461Z,2.60
2018-06-13T17:11:34.838Z,2.33
2018-06-13T17:14:03.218Z,2.40
2018-06-13T17:16:31.584Z,2.33
2018-06-13T17:18:59.912Z,2.30
2018-06-13T17:21:28.259Z,2.10
2018-06-13T17:23:56.595Z,2.23
2018-06-13T17:26:24.980Z,2.03
2018-06-13T17:28:53.308Z,2.33
2018-06-13T17:31:21.670Z,2.20
2018-06-13T17:33:49.999Z,2.83
2018-06-13T17:36:18.331Z,2.47
2018-06-13T17:38:46.735Z,2.10
2018-06-13T17:41:15.057Z,2.20
2018-06-13T17:43:43.425Z,2.30
2018-06-13T17:46:11.752Z,2.00
2018-06-13T17:48:40.137Z,2.20
2018-06-13T17:51:08.480Z,2.50
2018-06-13T17:53:36.847Z,2.20
2018-06-13T17:56:05.215Z,2.00
2018-06-13T17:58:33.304Z,2.27
2018-06-13T18:01:01.642Z,2.27
2018-06-13T18:03:29.999Z,2.53
2018-06-13T18:05:58.336Z,2.30
2018-06-13T18:08:29.256Z,2.40
2018-06-13T18:10:57.323Z,2.20
2018-06-13T18:13:25.773Z,2.10
2018-06-13T18:15:54.115Z,2.07
2018-06-13T18:18:22.739Z,1.87
2018-06-13T18:20:51.069Z,2.23
2018-06-13T18:23:19.429Z,2.17
2018-06-13T18:25:47.497Z,2.03
2018-06-13T18:28:15.877Z,2.20
2018-06-13T18:30:44.208Z,1.90
2018-06-13T18:33:12.831Z,1.90
2018-06-13T18:35:41.160Z,1.83
2018-06-13T18:38:09.521Z,1.63
2018-06-13T18:40:37.844Z,2.00
2018-06-13T18:43:06.217Z,1.97
2018-06-13T18:45:34.532Z,1.53
2018-06-13T18:48:02.893Z,1.70
2018-06-13T18:50:31.236Z,1.60
2018-06-13T18:52:59.718Z,1.30
2018-06-13T18:55:28.047Z,1.70
2018-06-13T18:57:56.416Z,1.63
2018-06-13T19:00:24.757Z,1.80
2018-06-13T19:02:53.128Z,1.70
2018-06-13T19:05:21.525Z,1.70
2018-06-13T19:07:49.913Z,1.70
2018-06-13T19:10:18.290Z,1.53
2018-06-13T19:12:46.654Z,1.47
2018-06-13T19:15:14.985Z,1.80
2018-06-13T19:17:43.352Z,2.00
2018-06-13T19:20:11.682Z,1.70
2018-06-13T19:22:40.020Z,1.80
2018-06-13T19:25:08.384Z,1.70
2018-06-13T19:27:36.727Z,1.60
2018-06-13T19:30:05.300Z,1.70
2018-06-13T19:32:33.645Z,1.57
2018-06-13T19:35:01.747Z,1.70
2018-06-13T19:37:30.084Z,2.23
2018-06-13T19:39:58.484Z,1.83
2018-06-13T19:42:26.838Z,1.60
2018-06-13T19:44:55.253Z,1.80
2018-06-13T19:47:28.651Z,1.70
2018-06-13T19:49:57.008Z,1.60
2018-06-13T19:52:29.400Z,1.70
2018-06-13T19:55:02.939Z,2.13
2018-06-13T19:57:31.301Z,1.70
2018-06-13T19:59:59.668Z,1.70
2018-06-13T20:02:32.232Z,1.73
2018-06-13T20:05:06.071Z,1.73
2018-06-13T20:07:34.435Z,1.53
2018-06-13T20:10:02.857Z,1.50
2018-06-13T20:12:43.439Z,1.87
2018-06-13T20:15:17.696Z,1.83
2018-06-13T20:17:51.295Z,1.70
2018-06-13T20:20:19.660Z,1.83
2018-06-13T20:22:48.472Z,1.80
2018-06-13T20:25:22.207Z,1.60
2018-06-13T20:27:55.864Z,1.80
2018-06-13T20:30:29.688Z,1.80
2018-06-13T20:32:58.007Z,1.50
2018-06-13T20:35:26.363Z,1.93
2018-06-13T20:37:54.716Z,1.80
2018-06-13T20:40:23.084Z,1.80
2018-06-13T20:42:51.152Z,1.40
2018-06-13T20:45:19.240Z,1.87
2018-06-13T20:47:47.571Z,1.80
2018-06-13T20:50:15.941Z,1.60
2018-06-13T20:52:44.293Z,1.90
2018-06-13T20:55:12.662Z,1.90
2018-06-13T20:57:40.992Z,1.67
2018-06-13T21:00:09.370Z,1.90
2018-06-13T21:02:37.717Z,1.77
2018-06-13T21:05:06.153Z,1.80
2018-06-13T21:07:34.487Z,2.00
2018-06-13T21:10:02.897Z,1.90
2018-06-13T21:12:31.269Z,1.63
2018-06-13T21:14:59.646Z,1.70
2018-06-13T21:17:28.004Z,1.70
2018-06-13T21:19:56.335Z,2.43
2018-06-13T21:22:24.440Z,1.90
2018-06-13T21:24:52.793Z,2.13
2018-06-13T21:29:47.416Z,2.07
2018-06-13T21:32:15.976Z,2.00
2018-06-13T21:34:44.401Z,1.80
2018-06-13T21:37:12.761Z,1.93
2018-06-13T21:39:41.140Z,1.83
2018-06-13T21:42:09.539Z,1.80
2018-06-13T21:44:37.871Z,2.07
2018-06-13T21:47:06.224Z,2.10
2018-06-13T21:49:34.539Z,1.73
2018-06-13T21:52:02.905Z,1.83
2018-06-13T21:54:31.229Z,2.00
2018-06-13T21:56:59.588Z,2.30
2018-06-13T21:59:27.923Z,1.90
2018-06-13T22:01:56.291Z,1.97
2018-06-13T22:04:24.661Z,2.20
2018-06-13T22:06:53.020Z,1.97
2018-06-13T22:09:21.380Z,2.20
2018-06-13T22:11:54.199Z,2.00
2018-06-13T22:14:24.156Z,2.27
2018-06-13T22:16:53.004Z,2.10
2018-06-13T22:19:22.248Z,2.30
2018-06-13T22:21:50.595Z,1.90
2018-06-13T22:24:18.924Z,2.10
2018-06-13T22:26:47.280Z,2.23
2018-06-13T22:29:15.620Z,2.20
2018-06-13T22:31:44.020Z,2.03
2018-06-13T22:34:12.451Z,2.27
2018-06-13T22:36:40.809Z,2.17
2018-06-13T22:39:11.027Z,2.03
2018-06-13T22:41:39.389Z,2.07
2018-06-13T22:44:07.713Z,2.90
2018-06-13T22:46:36.076Z,2.60
2018-06-13T22:49:04.432Z,2.40
2018-06-13T22:51:32.958Z,2.63
2018-06-13T22:54:01.291Z,2.60
2018-06-13T22:56:29.644Z,2.53
2018-06-13T22:58:58.020Z,2.57
2018-06-13T23:01:26.384Z,2.57
2018-06-13T23:03:54.790Z,2.50
2018-06-13T23:06:23.107Z,2.50
2018-06-13T23:08:51.227Z,2.83
2018-06-13T23:11:19.560Z,2.57
2018-06-13T23:13:47.914Z,2.43
2018-06-13T23:16:16.271Z,2.40
2018-06-13T23:18:44.623Z,2.73
2018-06-13T23:21:12.940Z,2.90
2018-06-13T23:23:41.299Z,2.63
2018-06-13T23:26:09.635Z,2.70
2018-06-13T23:28:37.711Z,2.63
2018-06-13T23:31:05.778Z,2.70
2018-06-13T23:33:34.131Z,2.40
2018-06-13T23:36:02.456Z,2.50
2018-06-13T23:38:30.804Z,2.70
2018-06-13T23:40:59.132Z,2.57
2018-06-13T23:43:27.531Z,2.73
2018-06-13T23:45:55.856Z,2.80
2018-06-13T23:48:23.949Z,2.93
2018-06-13T23:50:52.272Z,3.27
2018-06-13T23:53:20.627Z,3.30
2018-06-13T23:55:48.948Z,3.33
2018-06-13T23:58:17.308Z,2.83
